Time;durP1;ratioP1;P1;durP2;ratioP2;P2;SDS_P1;SDS_P2;PMS_P1;PMS_P2;Temp;Humidity;BMP_temperature;BMP_pressure;BME280_temperature;BME280_humidity;BME280_pressure;Samples;Min_cycle;Max_cycle;Signal;HPM_P1;HPM_P2
2022/03/23 00:01:41;;;;;;;5.35;2.10;;;-0.80;99.90;;;;;;5092349;28;20630;-82
2022/03/23 00:04:06;;;;;;;0.40;0.40;;;-0.90;99.90;;;;;;5085944;28;20605;-82
2022/03/23 00:06:33;;;;;;;0.88;0.88;;;-1.10;99.90;;;;;;5073336;28;20221;-83
2022/03/23 00:09:00;;;;;;;0.40;0.40;;;-1.10;99.90;;;;;;5055755;28;20252;-82
2022/03/23 00:11:27;;;;;;;0.40;0.40;;;-1.20;99.90;;;;;;5074177;28;20202;-82
2022/03/23 00:13:54;;;;;;;0.50;0.50;;;-1.30;99.90;;;;;;5076042;28;20192;-82
2022/03/23 00:16:20;;;;;;;0.95;0.95;;;-1.40;99.90;;;;;;5075444;28;20210;-82
2022/03/23 00:18:46;;;;;;;0.47;0.47;;;-1.50;99.90;;;;;;5075251;28;20200;-83
2022/03/23 00:21:11;;;;;;;1.45;1.02;;;-1.50;99.90;;;;;;5093426;28;20188;-82
2022/03/23 00:23:37;;;;;;;0.40;0.40;;;-1.50;99.90;;;;;;5093385;28;20277;-82
2022/03/23 00:26:03;;;;;;;0.55;0.55;;;-1.50;99.90;;;;;;5093701;28;20211;-83
2022/03/23 00:28:29;;;;;;;0.30;0.30;;;-1.50;99.90;;;;;;5093258;28;20204;-82
2022/03/23 00:30:56;;;;;;;0.50;0.50;;;-1.50;99.90;;;;;;5075400;28;20651;-83
2022/03/23 00:33:22;;;;;;;0.65;0.65;;;-1.50;99.90;;;;;;5075159;28;20686;-83
2022/03/23 00:35:49;;;;;;;0.60;0.60;;;-1.50;99.90;;;;;;5075135;28;20282;-83
2022/03/23 00:38:18;;;;;;;0.63;0.60;;;-1.50;99.90;;;;;;5093508;28;20355;-82
2022/03/23 00:40:44;;;;;;;0.30;0.30;;;-1.50;99.90;;;;;;5091997;28;20559;-82
2022/03/23 00:43:10;;;;;;;2.35;1.17;;;-1.40;99.90;;;;;;5093251;28;20723;-83
2022/03/23 00:45:37;;;;;;;0.60;0.60;;;-1.40;99.90;;;;;;5074537;28;20234;-82
2022/03/23 00:48:04;;;;;;;0.60;0.60;;;-1.50;99.90;;;;;;5075231;28;20256;-82
2022/03/23 00:50:30;;;;;;;0.65;0.65;;;-1.50;99.90;;;;;;5093202;28;20188;-82
2022/03/23 00:52:56;;;;;;;0.50;0.50;;;-1.50;99.90;;;;;;5096466;28;20184;-82
2022/03/23 00:55:21;;;;;;;0.30;0.30;;;-1.50;99.90;;;;;;5096974;28;20261;-82
2022/03/23 00:57:48;;;;;;;1.52;1.13;;;-1.50;99.90;;;;;;5079141;28;20207;-82
2022/03/23 01:00:17;;;;;;;0.60;0.60;;;-1.60;99.90;;;;;;5078955;28;20675;-82
2022/03/23 01:02:45;;;;;;;0.40;0.40;;;-1.70;99.90;;;;;;5078813;28;20200;-82
2022/03/23 01:05:12;;;;;;;0.40;0.40;;;-1.70;99.90;;;;;;5075397;28;20660;-82
2022/03/23 01:07:39;;;;;;;0.38;0.38;;;-1.80;99.90;;;;;;5076738;28;20228;-82
2022/03/23 01:10:07;;;;;;;2.33;1.52;;;-1.80;99.90;;;;;;5096985;28;20202;-82
2022/03/23 01:12:34;;;;;;;0.38;0.38;;;-1.80;99.90;;;;;;5078541;28;20295;-83
2022/03/23 01:15:00;;;;;;;0.30;0.30;;;-1.70;99.90;;;;;;5097244;28;20190;-82
2022/03/23 01:17:26;;;;;;;2.15;1.27;;;-1.70;99.90;;;;;;5096500;28;20192;-82
2022/03/23 01:19:53;;;;;;;0.40;0.40;;;-1.70;99.90;;;;;;5078896;28;20609;-83
2022/03/23 01:22:19;;;;;;;0.40;0.40;;;-1.70;99.90;;;;;;5096612;28;20196;-82
2022/03/23 01:24:45;;;;;;;0.40;0.40;;;-1.60;99.90;;;;;;5078350;28;20208;-83
2022/03/23 01:27:11;;;;;;;0.38;0.38;;;-1.60;99.90;;;;;;5078549;28;20200;-82
2022/03/23 01:29:36;;;;;;;0.40;0.40;;;-1.60;99.90;;;;;;5077837;28;20192;-82
2022/03/23 01:32:03;;;;;;;0.63;0.63;;;-1.70;99.90;;;;;;5078278;28;20207;-82
2022/03/23 01:34:29;;;;;;;0.63;0.63;;;-1.70;99.90;;;;;;5096643;28;20212;-82
2022/03/23 01:36:55;;;;;;;0.60;0.60;;;-1.70;99.90;;;;;;5078320;28;20240;-82
2022/03/23 01:39:20;;;;;;;0.30;0.30;;;-1.70;99.90;;;;;;5096446;28;20184;-81
2022/03/23 01:41:46;;;;;;;0.40;0.40;;;-1.80;99.90;;;;;;5078210;28;20248;-82
2022/03/23 01:44:12;;;;;;;0.32;0.32;;;-1.80;99.90;;;;;;5078061;28;20338;-81
2022/03/23 01:46:38;;;;;;;0.50;0.50;;;-1.90;99.90;;;;;;5077971;28;20255;-82
2022/03/23 01:49:03;;;;;;;0.50;0.50;;;-1.90;99.90;;;;;;5095738;28;20189;-82
2022/03/23 01:51:29;;;;;;;0.40;0.40;;;-2.00;99.90;;;;;;5077783;28;20696;-82
2022/03/23 01:53:55;;;;;;;0.60;0.60;;;-2.20;99.90;;;;;;5078021;28;20275;-82
2022/03/23 01:56:22;;;;;;;0.50;0.50;;;-2.20;99.90;;;;;;5077808;28;20253;-82
2022/03/23 01:58:48;;;;;;;0.30;0.30;;;-2.20;99.90;;;;;;5077948;28;20287;-82
2022/03/23 02:01:15;;;;;;;0.68;0.68;;;-2.20;99.90;;;;;;5097394;28;20192;-93
2022/03/23 02:03:41;;;;;;;0.50;0.50;;;-2.30;99.90;;;;;;5095766;28;20717;-93
2022/03/23 02:06:07;;;;;;;0.40;0.40;;;-2.30;99.90;;;;;;5101183;28;20220;-94
2022/03/23 02:08:32;;;;;;;0.60;0.60;;;-2.30;99.90;;;;;;5102190;28;20193;-94
2022/03/23 02:10:58;;;;;;;0.40;0.40;;;-2.20;99.90;;;;;;5085436;28;20184;-94
2022/03/23 02:13:24;;;;;;;1.42;1.33;;;-2.10;99.90;;;;;;5104152;28;20195;-95
2022/03/23 02:15:50;;;;;;;0.43;0.43;;;-2.00;99.90;;;;;;5088397;28;20196;-94
2022/03/23 02:18:16;;;;;;;0.63;0.63;;;-2.10;99.90;;;;;;5103866;28;20192;-94
2022/03/23 02:20:42;;;;;;;0.55;0.55;;;-2.10;99.90;;;;;;5081847;28;20203;-94
2022/03/23 02:23:08;;;;;;;0.40;0.40;;;-2.10;99.90;;;;;;5099531;28;20287;-94
2022/03/23 02:25:34;;;;;;;1.75;1.30;;;-2.20;99.90;;;;;;5082773;28;20204;-92
2022/03/23 02:28:00;;;;;;;0.45;0.45;;;-2.20;99.90;;;;;;5083305;28;20196;-93
2022/03/23 02:30:26;;;;;;;0.55;0.55;;;-2.20;99.90;;;;;;5080951;28;20248;-93
2022/03/23 02:32:52;;;;;;;0.40;0.40;;;-2.30;99.90;;;;;;5082406;28;20203;-93
2022/03/23 02:35:17;;;;;;;0.40;0.40;;;-2.30;99.90;;;;;;5100847;28;20188;-93
2022/03/23 02:37:43;;;;;;;0.40;0.40;;;-2.40;99.90;;;;;;5083594;28;20196;-94
2022/03/23 02:40:11;;;;;;;0.65;0.65;;;-2.40;99.90;;;;;;5080532;28;20695;-94
2022/03/23 02:42:37;;;;;;;0.40;0.40;;;-2.40;99.90;;;;;;5078565;28;20216;-95
2022/03/23 02:45:05;;;;;;;0.38;0.38;;;-2.40;99.90;;;;;;5080717;28;20208;-92
2022/03/23 02:47:31;;;;;;;0.55;0.55;;;-2.40;99.90;;;;;;5088301;28;20200;-93
2022/03/23 02:49:57;;;;;;;0.75;0.75;;;-2.40;99.90;;;;;;5104187;28;20647;-93
2022/03/23 02:52:23;;;;;;;0.40;0.40;;;-2.40;99.90;;;;;;5083389;28;20192;-92
2022/03/23 03:03:30;;;;;;;0.40;0.40;;;-2.60;99.90;;;;;;5102435;28;20606;-93
2022/03/23 03:05:56;;;;;;;0.57;0.55;;;-2.60;99.90;;;;;;5082426;28;20713;-90
2022/03/23 03:11:06;;;;;;;0.40;0.40;;;-2.70;99.90;;;;;;5100712;28;20199;-88
2022/03/23 03:13:32;;;;;;;0.50;0.50;;;-2.80;99.90;;;;;;5096437;28;20188;-93
2022/03/23 03:16:02;;;;;;;0.35;0.35;;;-2.90;99.90;;;;;;5082832;28;20223;-93
2022/03/23 03:18:33;;;;;;;0.35;0.35;;;-2.90;99.90;;;;;;5084693;28;20200;-93
2022/03/23 03:21:03;;;;;;;0.40;0.40;;;-3.00;99.90;;;;;;5083549;28;20674;-92
2022/03/23 03:23:30;;;;;;;0.70;0.70;;;-3.10;99.90;;;;;;5094087;28;20622;-91
2022/03/23 03:25:56;;;;;;;0.40;0.40;;;-3.10;99.90;;;;;;5090788;28;20239;-93
2022/03/23 03:28:22;;;;;;;0.30;0.30;;;-3.10;99.90;;;;;;5079141;28;20192;-93
2022/03/23 03:30:48;;;;;;;0.40;0.40;;;-3.10;99.90;;;;;;5080651;28;20196;-93
2022/03/23 03:33:17;;;;;;;1.05;1.00;;;-3.20;99.90;;;;;;5100077;28;20184;-91
2022/03/23 03:35:42;;;;;;;0.30;0.30;;;-3.10;99.90;;;;;;5100037;28;20189;-93
2022/03/23 03:38:08;;;;;;;0.63;0.63;;;-3.10;99.90;;;;;;5083310;28;20222;-93
2022/03/23 03:40:34;;;;;;;0.35;0.35;;;-2.90;99.90;;;;;;5081908;28;20192;-92
2022/03/23 03:43:04;;;;;;;0.45;0.45;;;-2.90;99.90;;;;;;5083226;28;20196;-92
2022/03/23 03:45:29;;;;;;;0.40;0.40;;;-2.80;99.90;;;;;;5080661;28;20216;-92
2022/03/23 03:47:55;;;;;;;3.33;1.23;;;-2.80;99.90;;;;;;5098351;28;20195;-92
2022/03/23 03:50:21;;;;;;;2.17;1.77;;;-2.80;99.90;;;;;;5096852;28;20228;-91
2022/03/23 03:52:47;;;;;;;0.47;0.47;;;-2.80;99.90;;;;;;5077396;28;20192;-88
2022/03/23 03:55:12;;;;;;;0.40;0.40;;;-2.80;99.90;;;;;;5067515;28;20201;-88
2022/03/23 03:57:38;;;;;;;0.50;0.50;;;-2.90;99.90;;;;;;5067678;28;20271;-90
2022/03/23 04:00:05;;;;;;;0.70;0.70;;;-2.90;99.90;;;;;;5093464;28;20203;-90
2022/03/23 04:02:31;;;;;;;0.40;0.40;;;-2.90;99.90;;;;;;5072670;28;20223;-91
2022/03/23 04:04:56;;;;;;;0.40;0.40;;;-3.00;99.90;;;;;;5076738;28;20235;-92
2022/03/23 04:07:22;;;;;;;0.30;0.30;;;-3.10;99.90;;;;;;5071953;28;20236;-90
2022/03/23 04:09:48;;;;;;;0.50;0.50;;;-3.10;99.90;;;;;;5056311;28;20277;-92
2022/03/23 04:12:13;;;;;;;0.57;0.57;;;-3.20;99.90;;;;;;5055820;28;20247;-93
2022/03/23 04:14:39;;;;;;;0.30;0.30;;;-3.20;99.90;;;;;;5068873;28;20244;-93
2022/03/23 04:17:05;;;;;;;0.40;0.40;;;-3.30;99.90;;;;;;5075677;28;20197;-92
2022/03/23 04:19:33;;;;;;;0.40;0.40;;;-3.40;99.90;;;;;;5075492;28;20607;-93
2022/03/23 04:21:59;;;;;;;0.40;0.40;;;-3.40;99.90;;;;;;5076651;28;20196;-92
2022/03/23 04:24:25;;;;;;;0.55;0.55;;;-3.40;99.90;;;;;;5075607;28;20193;-91
2022/03/23 04:26:50;;;;;;;0.38;0.38;;;-3.30;99.90;;;;;;5090923;28;20280;-91
2022/03/23 04:29:16;;;;;;;0.82;0.82;;;-3.30;99.90;;;;;;5075539;28;20308;-92
2022/03/23 04:31:42;;;;;;;0.40;0.40;;;-3.30;99.90;;;;;;5076352;28;20192;-94
2022/03/23 04:34:08;;;;;;;0.40;0.40;;;-3.40;99.90;;;;;;5093575;28;20216;-92
2022/03/23 04:36:34;;;;;;;0.55;0.55;;;-3.40;99.90;;;;;;5092353;28;20207;-93
2022/03/23 04:39:00;;;;;;;0.40;0.40;;;-3.40;99.90;;;;;;5092347;28;20667;-93
2022/03/23 04:41:26;;;;;;;0.40;0.40;;;-3.50;99.90;;;;;;5075771;28;20199;-93
2022/03/23 04:43:52;;;;;;;0.77;0.77;;;-3.60;99.90;;;;;;5090953;28;20223;-91
2022/03/23 04:46:17;;;;;;;0.32;0.32;;;-3.60;99.90;;;;;;5090272;28;20209;-91
2022/03/23 04:48:43;;;;;;;0.47;0.47;;;-3.60;99.90;;;;;;5076918;28;20311;-93
2022/03/23 04:51:09;;;;;;;1.40;1.30;;;-3.70;99.90;;;;;;5077897;28;20255;-92
2022/03/23 04:53:34;;;;;;;0.80;0.80;;;-3.70;99.90;;;;;;5075948;28;20193;-94
2022/03/23 04:56:00;;;;;;;0.47;0.47;;;-3.70;99.90;;;;;;5076101;28;20197;-93
2022/03/23 04:58:27;;;;;;;0.50;0.50;;;-3.70;99.90;;;;;;5076405;28;20283;-92
2022/03/23 05:00:52;;;;;;;0.60;0.60;;;-3.70;99.90;;;;;;5077642;28;20219;-92
2022/03/23 05:03:18;;;;;;;0.85;0.85;;;-3.70;99.90;;;;;;5075175;28;20674;-91
2022/03/23 05:05:44;;;;;;;0.40;0.40;;;-3.70;99.90;;;;;;5074479;28;20213;-92
2022/03/23 05:08:09;;;;;;;0.47;0.47;;;-3.80;99.90;;;;;;5075457;28;20254;-90
2022/03/23 05:10:35;;;;;;;0.70;0.70;;;-3.70;99.90;;;;;;5075321;28;20614;-92
2022/03/23 05:13:01;;;;;;;0.75;0.75;;;-3.60;99.90;;;;;;5077197;28;20204;-93
2022/03/23 05:15:27;;;;;;;0.30;0.30;;;-3.40;99.90;;;;;;5076653;28;20270;-92
2022/03/23 05:17:52;;;;;;;1.02;1.02;;;-3.30;99.90;;;;;;5080070;28;20269;-91
2022/03/23 05:20:19;;;;;;;0.70;0.70;;;-3.20;99.90;;;;;;5080046;28;20279;-89
2022/03/23 05:22:45;;;;;;;0.60;0.60;;;-3.20;99.90;;;;;;5097269;28;20250;-90
2022/03/23 05:25:12;;;;;;;0.43;0.43;;;-3.20;99.90;;;;;;5078773;28;20212;-91
2022/03/23 05:27:39;;;;;;;0.43;0.43;;;-3.20;99.90;;;;;;5079160;28;20193;-91
2022/03/23 05:30:09;;;;;;;0.40;0.40;;;-3.10;99.90;;;;;;5078476;28;20271;-92
2022/03/23 05:32:35;;;;;;;0.77;0.77;;;-3.10;99.90;;;;;;5078797;28;20203;-90
2022/03/23 05:35:01;;;;;;;0.40;0.40;;;-3.10;99.90;;;;;;5081465;28;20244;-91
2022/03/23 05:37:27;;;;;;;0.60;0.60;;;-3.00;99.90;;;;;;5081500;28;20282;-94
2022/03/23 05:39:52;;;;;;;0.40;0.40;;;-2.90;99.90;;;;;;5102973;28;20193;-92
2022/03/23 05:42:19;;;;;;;0.50;0.50;;;-2.80;99.90;;;;;;5082898;28;20291;-90
2022/03/23 05:44:45;;;;;;;0.45;0.45;;;-2.80;99.90;;;;;;5079212;28;20261;-90
2022/03/23 05:47:11;;;;;;;0.93;0.93;;;-2.70;99.90;;;;;;5098251;28;20192;-91
2022/03/23 05:49:37;;;;;;;0.50;0.50;;;-2.70;99.90;;;;;;5098811;28;20192;-91
2022/03/23 05:52:03;;;;;;;0.40;0.40;;;-2.60;99.90;;;;;;5081647;28;20195;-91
2022/03/23 05:54:29;;;;;;;0.68;0.68;;;-2.60;99.90;;;;;;5080391;28;20659;-92
2022/03/23 05:56:54;;;;;;;1.88;1.10;;;-2.60;99.90;;;;;;5098750;28;20199;-89
2022/03/23 05:59:20;;;;;;;0.40;0.40;;;-2.60;99.90;;;;;;5081151;28;20223;-91
2022/03/23 06:01:46;;;;;;;0.47;0.47;;;-2.50;99.90;;;;;;5081477;28;20204;-90
2022/03/23 06:04:12;;;;;;;0.40;0.40;;;-2.40;99.90;;;;;;5097353;28;20196;-91
2022/03/23 06:06:38;;;;;;;0.50;0.50;;;-2.30;99.90;;;;;;5076009;28;20296;-91
2022/03/23 06:09:05;;;;;;;1.65;1.35;;;-2.20;99.90;;;;;;5077740;28;20219;-92
2022/03/23 06:11:31;;;;;;;16.15;1.95;;;-2.10;99.90;;;;;;5078428;28;20216;-90
2022/03/23 06:13:57;;;;;;;0.55;0.55;;;-2.10;99.90;;;;;;5077681;28;20193;-90
2022/03/23 06:16:23;;;;;;;0.40;0.40;;;-2.00;99.90;;;;;;5076176;28;20198;-90
2022/03/23 06:18:49;;;;;;;0.40;0.40;;;-1.80;99.90;;;;;;5076723;28;20192;-92
2022/03/23 06:21:15;;;;;;;0.60;0.60;;;-1.70;99.90;;;;;;5076840;28;20292;-88
2022/03/23 06:23:41;;;;;;;0.50;0.50;;;-1.60;99.90;;;;;;5076584;28;20235;-90
2022/03/23 06:26:06;;;;;;;0.30;0.30;;;-1.50;99.90;;;;;;5076619;28;20637;-91
2022/03/23 06:28:33;;;;;;;0.50;0.50;;;-1.40;99.90;;;;;;5077334;28;20220;-92
2022/03/23 06:30:59;;;;;;;0.40;0.40;;;-1.30;99.90;;;;;;5077514;28;20548;-90
2022/03/23 06:33:25;;;;;;;0.50;0.50;;;-1.10;99.90;;;;;;5077445;28;20197;-92
2022/03/23 06:35:51;;;;;;;2.22;1.35;;;-1.00;99.90;;;;;;5077040;28;20224;-92
2022/03/23 06:38:17;;;;;;;0.52;0.52;;;-1.00;99.90;;;;;;5078321;28;20193;-92
2022/03/23 06:40:44;;;;;;;1.02;1.02;;;-0.90;99.90;;;;;;5077400;28;20197;-92
2022/03/23 06:43:10;;;;;;;1.05;0.65;;;-0.90;99.90;;;;;;5078527;28;20246;-92
2022/03/23 06:45:38;;;;;;;0.40;0.40;;;-0.80;99.90;;;;;;5077507;28;20201;-92
2022/03/23 06:48:04;;;;;;;0.50;0.50;;;-0.70;99.90;;;;;;5077825;28;20185;-91
2022/03/23 06:50:30;;;;;;;0.35;0.35;;;-0.50;99.90;;;;;;5077204;28;20212;-92
2022/03/23 06:52:55;;;;;;;0.50;0.50;;;-0.40;99.90;;;;;;5076911;28;20204;-92
2022/03/23 06:55:21;;;;;;;3.67;1.55;;;-0.10;99.90;;;;;;5078077;28;20196;-90
2022/03/23 06:57:47;;;;;;;0.30;0.30;;;0.10;99.90;;;;;;5077010;28;20320;-89
2022/03/23 07:00:13;;;;;;;0.40;0.40;;;0.30;99.90;;;;;;5075644;28;20197;-91
2022/03/23 07:02:40;;;;;;;0.50;0.50;;;0.50;99.90;;;;;;5075134;28;20200;-93
2022/03/23 07:05:07;;;;;;;0.30;0.30;;;0.60;99.90;;;;;;5072124;28;20202;-91
2022/03/23 07:07:32;;;;;;;0.35;0.35;;;0.80;99.90;;;;;;5056571;28;20229;-91
2022/03/23 07:09:58;;;;;;;0.40;0.40;;;1.00;99.90;;;;;;5073984;28;20280;-91
2022/03/23 07:12:24;;;;;;;0.35;0.35;;;1.10;99.90;;;;;;5091015;28;20213;-91
2022/03/23 07:14:50;;;;;;;0.30;0.30;;;1.30;99.90;;;;;;5079144;28;20749;-92
2022/03/23 07:17:17;;;;;;;0.20;0.20;;;1.50;99.90;;;;;;5078929;28;20204;-91
2022/03/23 07:19:45;;;;;;;0.30;0.30;;;1.60;99.90;;;;;;5079379;28;20630;-93
2022/03/23 07:22:11;;;;;;;0.40;0.40;;;1.80;99.90;;;;;;5078803;28;20211;-92
2022/03/23 07:24:37;;;;;;;0.88;0.88;;;2.00;99.90;;;;;;5095921;28;20606;-92
2022/03/23 07:27:03;;;;;;;0.30;0.30;;;2.10;99.90;;;;;;5078087;28;20272;-92
2022/03/23 07:29:29;;;;;;;0.60;0.47;;;2.30;99.90;;;;;;5096514;28;20241;-92
2022/03/23 07:31:54;;;;;;;0.75;0.52;;;2.40;99.90;;;;;;5079298;28;20583;-93
2022/03/23 07:34:20;;;;;;;0.30;0.30;;;2.60;99.90;;;;;;5097103;28;20192;-90
2022/03/23 07:36:48;;;;;;;0.32;0.32;;;2.70;99.90;;;;;;5079484;28;20200;-92
2022/03/23 07:39:21;;;;;;;0.82;0.82;;;2.90;99.90;;;;;;5073183;28;20215;-91
2022/03/23 07:41:52;;;;;;;0.75;0.75;;;3.00;99.90;;;;;;5076162;28;20201;-93
2022/03/23 07:44:19;;;;;;;0.55;0.55;;;3.10;99.90;;;;;;5075524;28;20845;-92
2022/03/23 07:46:48;;;;;;;0.40;0.40;;;3.30;99.90;;;;;;5075755;28;20258;-93
2022/03/23 07:49:14;;;;;;;0.28;0.28;;;3.40;99.90;;;;;;5076620;28;20656;-92
2022/03/23 07:51:41;;;;;;;0.40;0.40;;;3.50;99.90;;;;;;5074587;28;20196;-93
2022/03/23 07:54:07;;;;;;;0.30;0.30;;;3.60;99.90;;;;;;5074940;28;20201;-92
2022/03/23 07:56:34;;;;;;;0.40;0.40;;;3.70;99.90;;;;;;5075901;28;20703;-92
2022/03/23 07:58:59;;;;;;;0.30;0.30;;;3.80;99.90;;;;;;5077218;28;20196;-94
2022/03/23 08:01:25;;;;;;;0.80;0.80;;;4.00;99.90;;;;;;5074740;28;20227;-93
2022/03/23 08:03:51;;;;;;;9.18;2.67;;;4.20;99.90;;;;;;5072310;28;20197;-94
2022/03/23 08:06:17;;;;;;;0.35;0.35;;;4.40;99.90;;;;;;5074001;28;20288;-93
2022/03/23 08:08:43;;;;;;;0.30;0.30;;;4.50;99.90;;;;;;5093420;28;20212;-93
2022/03/23 08:11:09;;;;;;;0.28;0.28;;;4.60;99.90;;;;;;5093727;28;20197;-94
2022/03/23 08:13:35;;;;;;;0.30;0.30;;;4.60;99.90;;;;;;5094823;28;20202;-94
2022/03/23 08:16:01;;;;;;;0.73;0.35;;;4.80;99.90;;;;;;5095885;28;20216;-94
2022/03/23 08:18:27;;;;;;;0.63;0.63;;;4.90;99.90;;;;;;5080912;28;20197;-94
2022/03/23 08:20:53;;;;;;;0.55;0.55;;;5.10;99.90;;;;;;5079557;28;20213;-94
2022/03/23 08:23:19;;;;;;;0.30;0.30;;;5.20;99.90;;;;;;5078404;28;20200;-89
2022/03/23 08:25:50;;;;;;;2.22;0.95;;;5.30;99.90;;;;;;5087635;28;20217;-93
2022/03/23 08:28:17;;;;;;;0.30;0.30;;;5.60;99.90;;;;;;5081014;28;20188;-93
2022/03/23 08:30:44;;;;;;;0.20;0.20;;;5.70;99.90;;;;;;5080040;28;20199;-92
2022/03/23 08:33:10;;;;;;;0.28;0.28;;;5.80;99.90;;;;;;5079106;28;20189;-92
2022/03/23 08:35:36;;;;;;;0.63;0.57;;;5.90;99.90;;;;;;5077944;28;20188;-93
2022/03/23 08:38:02;;;;;;;1.48;0.82;;;5.70;99.90;;;;;;5077770;28;20678;-94
2022/03/23 08:40:29;;;;;;;0.30;0.30;;;5.90;99.90;;;;;;5076651;28;20732;-94
2022/03/23 08:42:57;;;;;;;0.20;0.20;;;6.10;99.90;;;;;;5078026;28;20192;-94
2022/03/23 08:45:23;;;;;;;0.93;0.88;;;6.30;99.90;;;;;;5077480;28;20261;-93
2022/03/23 08:47:49;;;;;;;0.30;0.30;;;6.40;99.90;;;;;;5078377;28;20271;-94
2022/03/23 08:50:16;;;;;;;0.45;0.45;;;6.50;99.90;;;;;;5060970;28;20193;-94
2022/03/23 08:52:42;;;;;;;1.00;0.40;;;6.80;99.90;;;;;;5076510;28;20655;-94
2022/03/23 08:55:13;;;;;;;0.38;0.38;;;6.90;99.90;;;;;;5076844;28;20296;-93
2022/03/23 08:57:39;;;;;;;0.95;0.95;;;7.00;99.90;;;;;;5077744;28;20208;-94
2022/03/23 09:00:06;;;;;;;0.43;0.43;;;7.00;99.90;;;;;;5078428;28;20562;-94
2022/03/23 09:02:32;;;;;;;2.38;1.00;;;7.30;99.90;;;;;;5076472;28;20196;-95
2022/03/23 09:04:58;;;;;;;0.40;0.40;;;7.50;99.90;;;;;;5082638;28;20591;-94
2022/03/23 09:07:23;;;;;;;0.40;0.40;;;7.40;99.90;;;;;;5076919;28;20240;-93
2022/03/23 09:09:50;;;;;;;1.75;1.15;;;7.60;99.90;;;;;;5077344;28;20229;-93
2022/03/23 09:12:16;;;;;;;0.40;0.40;;;7.70;99.90;;;;;;5078331;28;20199;-94
2022/03/23 09:14:42;;;;;;;2.28;0.77;;;7.80;99.90;;;;;;5081438;28;20570;-94
2022/03/23 09:17:08;;;;;;;0.30;0.30;;;7.90;99.90;;;;;;5082585;28;20217;-93
2022/03/23 09:19:34;;;;;;;0.28;0.28;;;8.10;99.90;;;;;;5081831;28;20246;-93
2022/03/23 09:22:00;;;;;;;0.75;0.73;;;8.20;99.90;;;;;;5082048;28;20225;-92
2022/03/23 09:24:27;;;;;;;0.60;0.60;;;8.50;99.90;;;;;;5080888;28;20562;-94
2022/03/23 09:26:55;;;;;;;0.30;0.30;;;8.70;99.90;;;;;;5081624;28;20189;-93
2022/03/23 09:29:21;;;;;;;0.73;0.70;;;8.60;99.90;;;;;;5080677;28;20236;-91
2022/03/23 09:31:47;;;;;;;1.00;0.90;;;8.70;99.90;;;;;;5081356;28;20185;-93
2022/03/23 09:34:13;;;;;;;1.50;1.40;;;8.80;99.90;;;;;;5081166;28;20204;-94
2022/03/23 09:39:27;;;;;;;1.20;0.98;;;9.10;99.90;;;;;;5080184;28;20219;-93
2022/03/23 09:42:00;;;;;;;1.10;1.10;;;9.30;99.90;;;;;;5079789;28;20208;-92
2022/03/23 09:44:30;;;;;;;0.80;0.80;;;9.50;99.90;;;;;;5079343;28;20216;-93
2022/03/23 09:47:01;;;;;;;1.23;1.10;;;9.40;99.90;;;;;;5079692;28;20250;-93
2022/03/23 09:49:27;;;;;;;0.93;0.90;;;9.60;99.90;;;;;;5079303;28;20605;-92
2022/03/23 09:51:56;;;;;;;0.80;0.80;;;9.80;99.90;;;;;;5079608;28;20193;-92
2022/03/23 09:54:22;;;;;;;0.60;0.60;;;9.60;99.90;;;;;;5079405;28;20197;-93
2022/03/23 09:56:49;;;;;;;1.95;1.30;;;9.70;99.90;;;;;;5080660;28;20200;-89
2022/03/23 09:59:15;;;;;;;1.23;1.10;;;9.80;99.90;;;;;;5079877;28;20570;-91
2022/03/23 10:01:46;;;;;;;0.93;0.90;;;10.10;99.90;;;;;;5079500;28;20205;-92
2022/03/23 10:04:12;;;;;;;0.98;0.98;;;10.00;99.90;;;;;;5076615;28;20227;-92
2022/03/23 10:07:04;;;;;;;0.80;0.80;;;10.10;99.90;;;;;;5067315;28;20255;-92
2022/03/23 10:09:54;;;;;;;1.55;1.10;;;10.50;99.90;;;;;;5077207;28;20204;-92
2022/03/23 10:12:41;;;;;;;0.98;0.98;;;10.60;99.90;;;;;;5077439;28;20193;-90
2022/03/23 10:15:45;;;;;;;1.17;1.08;;;10.60;98.40;;;;;;5077687;28;20659;-93
2022/03/23 10:18:32;;;;;;;0.70;0.70;;;11.20;99.90;;;;;;5079065;28;20276;-91
2022/03/23 10:20:57;;;;;;;0.60;0.60;;;11.00;97.30;;;;;;5060669;28;20559;-91
2022/03/23 10:23:23;;;;;;;2.30;1.58;;;11.00;96.80;;;;;;5062409;28;20197;-92
2022/03/23 10:25:50;;;;;;;6.40;1.85;;;10.90;98.10;;;;;;5081781;28;20208;-91
2022/03/23 10:28:17;;;;;;;0.60;0.60;;;10.90;97.10;;;;;;5080743;28;20289;-91
2022/03/23 10:30:45;;;;;;;1.48;1.35;;;11.00;96.30;;;;;;5080837;28;20192;-92
2022/03/23 10:33:22;;;;;;;1.05;0.93;;;11.30;97.50;;;;;;5082441;28;20631;-92
2022/03/23 10:35:49;;;;;;;0.70;0.70;;;11.40;95.10;;;;;;5081894;28;20207;-91
2022/03/23 10:38:17;;;;;;;0.90;0.82;;;11.30;94.90;;;;;;5084003;28;20675;-92
2022/03/23 10:40:44;;;;;;;0.95;0.93;;;11.30;94.20;;;;;;5083356;28;20191;-92
2022/03/23 10:43:14;;;;;;;2.80;1.65;;;11.40;94.70;;;;;;5083901;28;20200;-93
2022/03/23 10:45:39;;;;;;;0.70;0.70;;;11.50;95.00;;;;;;5082003;28;20212;-91
2022/03/23 10:48:14;;;;;;;1.08;1.08;;;11.50;95.30;;;;;;5082606;28;20196;-93
2022/03/23 10:50:57;;;;;;;1.23;1.17;;;11.70;93.70;;;;;;5082536;28;20277;-93
2022/03/23 10:53:38;;;;;;;0.90;0.90;;;11.60;94.30;;;;;;5082997;28;20251;-93
2022/03/23 10:56:05;;;;;;;0.70;0.70;;;11.50;93.20;;;;;;5080465;28;20670;-82
2022/03/23 10:58:32;;;;;;;0.80;0.80;;;11.50;93.20;;;;;;5094965;28;20325;-82
2022/03/23 11:01:06;;;;;;;0.80;0.80;;;11.50;92.80;;;;;;5076822;28;20238;-81
2022/03/23 11:03:49;;;;;;;1.30;1.20;;;11.50;92.10;;;;;;5076329;28;20670;-82
2022/03/23 11:06:25;;;;;;;0.80;0.80;;;11.70;93.80;;;;;;5073305;28;20229;-82
2022/03/23 11:15:46;;;;;;;0.85;0.85;;;11.60;91.00;;;;;;5074132;28;20647;-82
2022/03/23 11:17:28;;;;;;;0.50;0.50;;;12.10;91.30;;;;;;5074426;28;20668;-83
2022/03/23 11:19:57;;;;;;;0.65;0.65;;;12.20;91.50;;;;;;5089211;28;20196;-83
2022/03/23 11:22:25;;;;;;;0.77;0.75;;;11.90;90.80;;;;;;5073993;28;20220;-83
2022/03/23 11:24:54;;;;;;;0.75;0.75;;;12.00;90.50;;;;;;5065336;28;20205;-82
2022/03/23 11:27:20;;;;;;;0.60;0.60;;;12.10;91.00;;;;;;5072921;28;20554;-83
2022/03/23 11:29:49;;;;;;;4.63;1.02;;;12.30;92.50;;;;;;5073011;28;20200;-82
2022/03/23 11:32:18;;;;;;;0.65;0.65;;;12.60;91.20;;;;;;5072877;28;20279;-82
2022/03/23 11:34:51;;;;;;;0.80;0.77;;;12.60;86.30;;;;;;5071640;28;20541;-81
2022/03/23 11:37:19;;;;;;;0.93;0.85;;;12.40;87.30;;;;;;5072245;28;20563;-82
2022/03/23 11:39:46;;;;;;;1.00;1.00;;;12.40;86.20;;;;;;5072098;28;20201;-83
2022/03/23 11:42:13;;;;;;;2.03;1.27;;;12.50;90.00;;;;;;5072690;28;20193;-80
2022/03/23 11:44:40;;;;;;;0.98;0.90;;;12.40;86.30;;;;;;5072399;28;20686;-80
2022/03/23 11:47:28;;;;;;;0.90;0.90;;;12.30;88.20;;;;;;5072406;28;20195;-81
2022/03/23 11:50:30;;;;;;;0.50;0.50;;;12.20;85.60;;;;;;5072273;28;20195;-81
2022/03/23 11:53:08;;;;;;;0.80;0.80;;;12.10;84.60;;;;;;5083976;28;20661;-80
2022/03/23 11:55:45;;;;;;;0.60;0.60;;;12.50;87.50;;;;;;5071676;28;20541;-81
2022/03/23 11:58:16;;;;;;;0.68;0.68;;;13.00;89.50;;;;;;5071905;28;20211;-80
2022/03/23 12:00:50;;;;;;;1.10;0.98;;;13.20;83.60;;;;;;5072060;28;20205;-80
2022/03/23 12:03:44;;;;;;;0.68;0.68;;;13.00;85.10;;;;;;5072358;28;20668;-82
2022/03/23 12:06:12;;;;;;;1.35;0.80;;;12.80;81.90;;;;;;5056708;28;20699;-81
2022/03/23 12:08:49;;;;;;;0.50;0.50;;;13.10;84.70;;;;;;5055409;28;20199;-81
2022/03/23 12:11:34;;;;;;;0.50;0.50;;;13.50;79.80;;;;;;5055712;28;20188;-82
2022/03/23 12:14:02;;;;;;;1.00;0.88;;;13.60;83.60;;;;;;5055085;28;20667;-81
2022/03/23 12:16:46;;;;;;;0.77;0.77;;;13.50;80.80;;;;;;5055378;28;20200;-82
2022/03/23 12:19:32;;;;;;;1.15;0.73;;;13.20;81.50;;;;;;5055183;28;20257;-82
2022/03/23 12:22:10;;;;;;;0.60;0.60;;;13.50;82.30;;;;;;5085117;28;20529;-82
2022/03/23 12:25:09;;;;;;;0.50;0.50;;;13.40;81.60;;;;;;5074638;28;20244;-82
2022/03/23 12:27:56;;;;;;;4.13;2.67;;;13.60;79.80;;;;;;5083210;28;20268;-81
2022/03/23 12:30:25;;;;;;;1.20;0.90;;;13.90;81.30;;;;;;5075225;28;20200;-82
2022/03/23 12:32:53;;;;;;;0.75;0.70;;;13.90;78.60;;;;;;5093584;28;20192;-82
2022/03/23 12:35:33;;;;;;;0.50;0.50;;;13.70;76.20;;;;;;5075388;28;20844;-83
2022/03/23 12:37:59;;;;;;;1.33;0.70;;;13.40;80.30;;;;;;5093570;28;20709;-82
2022/03/23 12:40:46;;;;;;;0.73;0.73;;;13.60;81.20;;;;;;5074642;28;20229;-82
2022/03/23 12:43:49;;;;;;;0.63;0.63;;;13.50;76.20;;;;;;5093620;28;20203;-83
2022/03/23 12:46:22;;;;;;;0.47;0.47;;;13.50;80.50;;;;;;5075772;28;20282;-83
2022/03/23 12:57:52;;;;;;;0.60;0.60;;;13.00;78.60;;;;;;5097616;28;20203;-82
2022/03/23 13:00:37;;;;;;;0.93;0.93;;;12.90;80.80;;;;;;5079131;28;20237;-81
2022/03/23 13:03:06;;;;;;;0.60;0.60;;;12.90;78.90;;;;;;5079569;28;20200;-81
2022/03/23 13:05:33;;;;;;;1.85;1.42;;;13.10;79.90;;;;;;5075075;28;20205;-81
2022/03/23 13:07:59;;;;;;;1.10;1.08;;;13.20;80.60;;;;;;5075511;28;20311;-81
2022/03/23 13:10:25;;;;;;;0.50;0.50;;;13.00;78.50;;;;;;5075761;28;20246;-81
2022/03/23 13:13:07;;;;;;;3.90;1.75;;;12.90;80.70;;;;;;5075716;28;20655;-81
2022/03/23 13:15:34;;;;;;;0.80;0.80;;;13.10;82.00;;;;;;5075280;28;20291;-81
2022/03/23 13:18:00;;;;;;;1.15;1.05;;;13.30;81.10;;;;;;5078640;28;20219;-82
2022/03/23 13:20:31;;;;;;;0.50;0.50;;;13.40;77.90;;;;;;5078370;28;20295;-78
2022/03/23 13:23:10;;;;;;;0.50;0.50;;;13.20;79.60;;;;;;5078976;28;20204;-79